sensor_id;sensor_type;location;lat;lon;timestamp;temperature;humidity
61392;DHT22;47261;52.892;5.738;2023-02-28T00:00:19;5.40;97.70
61392;DHT22;47261;52.892;5.738;2023-02-28T00:02:45;5.40;97.70
61392;DHT22;47261;52.892;5.738;2023-02-28T00:05:13;5.50;97.80
61392;DHT22;47261;52.892;5.738;2023-02-28T00:07:39;5.50;97.80
61392;DHT22;47261;52.892;5.738;2023-02-28T00:10:06;5.50;97.90
61392;DHT22;47261;52.892;5.738;2023-02-28T00:12:34;5.50;97.80
61392;DHT22;47261;52.892;5.738;2023-02-28T00:15:00;5.60;97.80
61392;DHT22;47261;52.892;5.738;2023-02-28T00:17:25;5.60;97.80
61392;DHT22;47261;52.892;5.738;2023-02-28T00:19:51;5.60;97.70
61392;DHT22;47261;52.892;5.738;2023-02-28T00:22:19;5.60;97.60
61392;DHT22;47261;52.892;5.738;2023-02-28T00:24:46;5.60;97.60
61392;DHT22;47261;52.892;5.738;2023-02-28T00:27:12;5.50;97.60
61392;DHT22;47261;52.892;5.738;2023-02-28T00:29:38;5.50;97.60
61392;DHT22;47261;52.892;5.738;2023-02-28T00:32:05;5.50;97.60
61392;DHT22;47261;52.892;5.738;2023-02-28T00:34:31;5.50;97.60
61392;DHT22;47261;52.892;5.738;2023-02-28T00:37:03;5.50;97.70
61392;DHT22;47261;52.892;5.738;2023-02-28T00:39:29;5.50;97.70
61392;DHT22;47261;52.892;5.738;2023-02-28T00:41:55;5.50;97.80
61392;DHT22;47261;52.892;5.738;2023-02-28T00:44:21;5.50;97.80
61392;DHT22;47261;52.892;5.738;2023-02-28T00:46:47;5.50;97.90
61392;DHT22;47261;52.892;5.738;2023-02-28T00:49:13;5.50;97.80
61392;DHT22;47261;52.892;5.738;2023-02-28T00:51:38;5.50;97.80
61392;DHT22;47261;52.892;5.738;2023-02-28T00:54:04;5.40;97.80
61392;DHT22;47261;52.892;5.738;2023-02-28T00:56:29;5.40;97.80
61392;DHT22;47261;52.892;5.738;2023-02-28T00:58:55;5.40;97.80
61392;DHT22;47261;52.892;5.738;2023-02-28T01:01:21;5.40;97.80
61392;DHT22;47261;52.892;5.738;2023-02-28T01:03:46;5.40;97.80
61392;DHT22;47261;52.892;5.738;2023-02-28T01:06:12;5.30;97.70
61392;DHT22;47261;52.892;5.738;2023-02-28T01:08:37;5.40;97.80
61392;DHT22;47261;52.892;5.738;2023-02-28T01:11:15;5.30;97.70
61392;DHT22;47261;52.892;5.738;2023-02-28T01:13:42;5.30;97.80
61392;DHT22;47261;52.892;5.738;2023-02-28T01:16:08;5.20;97.70
61392;DHT22;47261;52.892;5.738;2023-02-28T01:18:33;5.30;97.70
61392;DHT22;47261;52.892;5.738;2023-02-28T01:21:06;5.20;97.80
61392;DHT22;47261;52.892;5.738;2023-02-28T01:23:32;5.20;97.90
61392;DHT22;47261;52.892;5.738;2023-02-28T01:26:10;5.20;97.90
61392;DHT22;47261;52.892;5.738;2023-02-28T01:28:36;5.10;98.00
61392;DHT22;47261;52.892;5.738;2023-02-28T01:31:02;5.10;98.00
61392;DHT22;47261;52.892;5.738;2023-02-28T01:33:29;5.10;98.10
61392;DHT22;47261;52.892;5.738;2023-02-28T01:36:05;5.00;98.10
61392;DHT22;47261;52.892;5.738;2023-02-28T01:38:32;5.00;98.20
61392;DHT22;47261;52.892;5.738;2023-02-28T01:40:58;5.00;98.20
61392;DHT22;47261;52.892;5.738;2023-02-28T01:43:35;5.00;98.30
61392;DHT22;47261;52.892;5.738;2023-02-28T01:46:17;5.00;98.40
61392;DHT22;47261;52.892;5.738;2023-02-28T01:49:06;5.00;98.40
61392;DHT22;47261;52.892;5.738;2023-02-28T01:51:51;5.00;98.60
61392;DHT22;47261;52.892;5.738;2023-02-28T01:54:29;5.00;98.40
61392;DHT22;47261;52.892;5.738;2023-02-28T01:57:03;5.00;98.40
61392;DHT22;47261;52.892;5.738;2023-02-28T01:59:35;5.00;98.40
61392;DHT22;47261;52.892;5.738;2023-02-28T02:02:03;5.00;98.40
61392;DHT22;47261;52.892;5.738;2023-02-28T02:04:34;5.00;98.40
61392;DHT22;47261;52.892;5.738;2023-02-28T02:07:03;5.00;98.50
61392;DHT22;47261;52.892;5.738;2023-02-28T02:09:29;5.00;98.40
61392;DHT22;47261;52.892;5.738;2023-02-28T02:11:55;5.00;98.50
61392;DHT22;47261;52.892;5.738;2023-02-28T02:14:48;5.00;98.60
61392;DHT22;47261;52.892;5.738;2023-02-28T02:17:28;5.00;98.80
61392;DHT22;47261;52.892;5.738;2023-02-28T02:23:39;5.10;98.90
61392;DHT22;47261;52.892;5.738;2023-02-28T02:31:56;5.00;98.80
61392;DHT22;47261;52.892;5.738;2023-02-28T02:34:48;5.10;98.70
61392;DHT22;47261;52.892;5.738;2023-02-28T02:42:46;5.00;98.60
61392;DHT22;47261;52.892;5.738;2023-02-28T02:45:23;5.00;98.70
61392;DHT22;47261;52.892;5.738;2023-02-28T02:47:50;5.00;98.70
61392;DHT22;47261;52.892;5.738;2023-02-28T02:50:24;5.00;98.80
61392;DHT22;47261;52.892;5.738;2023-02-28T02:52:55;5.00;98.90
61392;DHT22;47261;52.892;5.738;2023-02-28T02:55:23;5.00;98.90
61392;DHT22;47261;52.892;5.738;2023-02-28T02:57:56;5.00;98.90
61392;DHT22;47261;52.892;5.738;2023-02-28T03:00:26;5.00;99.10
61392;DHT22;47261;52.892;5.738;2023-02-28T03:02:55;5.00;99.10
61392;DHT22;47261;52.892;5.738;2023-02-28T03:05:47;5.10;99.10
61392;DHT22;47261;52.892;5.738;2023-02-28T03:08:13;5.00;99.10
61392;DHT22;47261;52.892;5.738;2023-02-28T03:19:33;5.20;99.30
61392;DHT22;47261;52.892;5.738;2023-02-28T03:24:38;5.30;99.20
61392;DHT22;47261;52.892;5.738;2023-02-28T03:27:23;5.30;99.20
61392;DHT22;47261;52.892;5.738;2023-02-28T03:30:05;5.20;99.20
61392;DHT22;47261;52.892;5.738;2023-02-28T03:32:56;5.30;99.20
61392;DHT22;47261;52.892;5.738;2023-02-28T03:35:25;5.30;99.20
61392;DHT22;47261;52.892;5.738;2023-02-28T03:38:00;5.30;99.20
61392;DHT22;47261;52.892;5.738;2023-02-28T03:40:31;5.30;99.20
61392;DHT22;47261;52.892;5.738;2023-02-28T03:43:04;5.30;99.20
61392;DHT22;47261;52.892;5.738;2023-02-28T03:45:37;5.30;99.20
61392;DHT22;47261;52.892;5.738;2023-02-28T03:50:41;5.30;99.30
61392;DHT22;47261;52.892;5.738;2023-02-28T03:53:20;5.30;99.20
61392;DHT22;47261;52.892;5.738;2023-02-28T03:55:54;5.40;99.30
61392;DHT22;47261;52.892;5.738;2023-02-28T03:58:33;5.30;99.40
61392;DHT22;47261;52.892;5.738;2023-02-28T04:01:15;5.40;99.50
61392;DHT22;47261;52.892;5.738;2023-02-28T04:03:41;5.40;99.50
61392;DHT22;47261;52.892;5.738;2023-02-28T04:06:13;5.40;99.50
61392;DHT22;47261;52.892;5.738;2023-02-28T04:08:40;5.40;99.60
61392;DHT22;47261;52.892;5.738;2023-02-28T04:11:14;5.40;99.60
61392;DHT22;47261;52.892;5.738;2023-02-28T04:13:41;5.40;99.60
61392;DHT22;47261;52.892;5.738;2023-02-28T04:16:08;5.40;99.60
61392;DHT22;47261;52.892;5.738;2023-02-28T04:18:41;5.40;99.60
61392;DHT22;47261;52.892;5.738;2023-02-28T04:21:09;5.50;99.60
61392;DHT22;47261;52.892;5.738;2023-02-28T04:23:34;5.50;99.90
61392;DHT22;47261;52.892;5.738;2023-02-28T04:26:00;5.50;99.70
61392;DHT22;47261;52.892;5.738;2023-02-28T04:28:25;5.50;99.70
61392;DHT22;47261;52.892;5.738;2023-02-28T04:30:56;5.50;99.70
61392;DHT22;47261;52.892;5.738;2023-02-28T04:33:21;5.50;99.80
61392;DHT22;47261;52.892;5.738;2023-02-28T04:35:47;5.50;99.70
61392;DHT22;47261;52.892;5.738;2023-02-28T04:38:12;5.50;99.70
61392;DHT22;47261;52.892;5.738;2023-02-28T04:40:38;5.40;99.70
61392;DHT22;47261;52.892;5.738;2023-02-28T04:43:04;5.40;99.70
61392;DHT22;47261;52.892;5.738;2023-02-28T04:45:30;5.40;99.70
61392;DHT22;47261;52.892;5.738;2023-02-28T04:47:57;5.40;99.70
61392;DHT22;47261;52.892;5.738;2023-02-28T04:50:23;5.30;99.70
61392;DHT22;47261;52.892;5.738;2023-02-28T04:52:49;5.30;99.70
61392;DHT22;47261;52.892;5.738;2023-02-28T04:55:14;5.20;99.60
61392;DHT22;47261;52.892;5.738;2023-02-28T04:57:40;5.10;99.70
61392;DHT22;47261;52.892;5.738;2023-02-28T05:00:09;5.10;99.90
61392;DHT22;47261;52.892;5.738;2023-02-28T05:02:37;5.00;99.70
61392;DHT22;47261;52.892;5.738;2023-02-28T05:05:04;5.00;99.80
61392;DHT22;47261;52.892;5.738;2023-02-28T05:07:30;4.90;99.80
61392;DHT22;47261;52.892;5.738;2023-02-28T05:09:55;4.90;99.80
61392;DHT22;47261;52.892;5.738;2023-02-28T05:12:21;4.90;99.80
61392;DHT22;47261;52.892;5.738;2023-02-28T05:14:47;4.80;99.90
61392;DHT22;47261;52.892;5.738;2023-02-28T05:17:12;4.80;99.90
61392;DHT22;47261;52.892;5.738;2023-02-28T05:19:38;4.80;99.90
61392;DHT22;47261;52.892;5.738;2023-02-28T05:22:04;4.70;99.90
61392;DHT22;47261;52.892;5.738;2023-02-28T05:24:29;4.70;99.90
61392;DHT22;47261;52.892;5.738;2023-02-28T05:26:55;4.60;99.90
61392;DHT22;47261;52.892;5.738;2023-02-28T05:29:21;4.60;99.90
61392;DHT22;47261;52.892;5.738;2023-02-28T05:31:47;4.50;99.90
61392;DHT22;47261;52.892;5.738;2023-02-28T05:34:13;4.50;99.90
61392;DHT22;47261;52.892;5.738;2023-02-28T05:36:41;4.40;99.90
61392;DHT22;47261;52.892;5.738;2023-02-28T05:39:07;4.40;99.90
61392;DHT22;47261;52.892;5.738;2023-02-28T05:41:41;4.30;99.90
61392;DHT22;47261;52.892;5.738;2023-02-28T05:44:07;4.20;99.90
61392;DHT22;47261;52.892;5.738;2023-02-28T05:46:33;4.20;99.90
61392;DHT22;47261;52.892;5.738;2023-02-28T05:48:58;4.20;99.90
61392;DHT22;47261;52.892;5.738;2023-02-28T05:51:25;4.10;99.90
61392;DHT22;47261;52.892;5.738;2023-02-28T05:53:51;4.00;99.90
61392;DHT22;47261;52.892;5.738;2023-02-28T05:56:17;4.00;99.90
61392;DHT22;47261;52.892;5.738;2023-02-28T05:58:42;4.00;99.90
61392;DHT22;47261;52.892;5.738;2023-02-28T06:01:41;4.00;99.90
61392;DHT22;47261;52.892;5.738;2023-02-28T06:04:09;3.90;99.90
61392;DHT22;47261;52.892;5.738;2023-02-28T06:06:36;3.90;99.90
61392;DHT22;47261;52.892;5.738;2023-02-28T06:09:05;3.80;99.90
61392;DHT22;47261;52.892;5.738;2023-02-28T06:11:31;3.80;99.90
61392;DHT22;47261;52.892;5.738;2023-02-28T06:13:58;3.70;99.90
61392;DHT22;47261;52.892;5.738;2023-02-28T06:16:29;3.70;99.90
61392;DHT22;47261;52.892;5.738;2023-02-28T06:18:57;3.60;99.90
61392;DHT22;47261;52.892;5.738;2023-02-28T06:21:23;3.60;99.90
61392;DHT22;47261;52.892;5.738;2023-02-28T06:23:48;3.60;99.90
61392;DHT22;47261;52.892;5.738;2023-02-28T06:26:14;3.60;99.90
61392;DHT22;47261;52.892;5.738;2023-02-28T06:28:40;3.50;99.90
61392;DHT22;47261;52.892;5.738;2023-02-28T06:31:10;3.50;99.90
61392;DHT22;47261;52.892;5.738;2023-02-28T06:33:37;3.50;99.90
61392;DHT22;47261;52.892;5.738;2023-02-28T06:36:04;3.50;99.90
61392;DHT22;47261;52.892;5.738;2023-02-28T06:38:30;3.40;99.90
61392;DHT22;47261;52.892;5.738;2023-02-28T06:40:56;3.40;99.90
61392;DHT22;47261;52.892;5.738;2023-02-28T06:43:23;3.40;99.90
61392;DHT22;47261;52.892;5.738;2023-02-28T06:45:49;3.40;99.90
61392;DHT22;47261;52.892;5.738;2023-02-28T06:48:14;3.40;99.90
61392;DHT22;47261;52.892;5.738;2023-02-28T06:50:40;3.40;99.90
61392;DHT22;47261;52.892;5.738;2023-02-28T06:53:06;3.30;99.90
61392;DHT22;47261;52.892;5.738;2023-02-28T06:55:32;3.30;99.90
61392;DHT22;47261;52.892;5.738;2023-02-28T06:57:58;3.30;99.90
61392;DHT22;47261;52.892;5.738;2023-02-28T07:00:24;3.30;99.90
61392;DHT22;47261;52.892;5.738;2023-02-28T07:02:50;3.30;99.90
61392;DHT22;47261;52.892;5.738;2023-02-28T07:05:16;3.20;99.90
61392;DHT22;47261;52.892;5.738;2023-02-28T07:07:41;3.20;99.90
61392;DHT22;47261;52.892;5.738;2023-02-28T07:10:12;3.20;99.90
61392;DHT22;47261;52.892;5.738;2023-02-28T07:12:39;3.20;99.90
61392;DHT22;47261;52.892;5.738;2023-02-28T07:15:06;3.20;99.90
61392;DHT22;47261;52.892;5.738;2023-02-28T07:17:31;3.20;99.90
61392;DHT22;47261;52.892;5.738;2023-02-28T07:19:57;3.20;99.90
61392;DHT22;47261;52.892;5.738;2023-02-28T07:22:23;3.20;99.90
61392;DHT22;47261;52.892;5.738;2023-02-28T07:24:48;3.20;99.90
61392;DHT22;47261;52.892;5.738;2023-02-28T07:27:14;3.20;99.90
61392;DHT22;47261;52.892;5.738;2023-02-28T07:29:49;3.20;99.90
61392;DHT22;47261;52.892;5.738;2023-02-28T07:32:15;3.20;99.90
61392;DHT22;47261;52.892;5.738;2023-02-28T07:34:41;3.10;99.90
61392;DHT22;47261;52.892;5.738;2023-02-28T07:37:06;3.20;99.90
61392;DHT22;47261;52.892;5.738;2023-02-28T07:39:32;3.20;99.90
61392;DHT22;47261;52.892;5.738;2023-02-28T07:41:58;3.20;99.90
61392;DHT22;47261;52.892;5.738;2023-02-28T07:44:26;3.20;99.90
61392;DHT22;47261;52.892;5.738;2023-02-28T07:46:51;3.20;99.90
61392;DHT22;47261;52.892;5.738;2023-02-28T07:49:18;3.20;99.90
61392;DHT22;47261;52.892;5.738;2023-02-28T07:51:44;3.30;99.90
61392;DHT22;47261;52.892;5.738;2023-02-28T07:54:09;3.30;99.90
61392;DHT22;47261;52.892;5.738;2023-02-28T07:56:35;3.30;99.90
61392;DHT22;47261;52.892;5.738;2023-02-28T07:59:01;3.30;99.90
61392;DHT22;47261;52.892;5.738;2023-02-28T08:01:27;3.30;99.90
61392;DHT22;47261;52.892;5.738;2023-02-28T08:03:53;3.30;99.90
61392;DHT22;47261;52.892;5.738;2023-02-28T08:06:22;3.30;99.90
61392;DHT22;47261;52.892;5.738;2023-02-28T08:08:48;3.30;99.90
61392;DHT22;47261;52.892;5.738;2023-02-28T08:11:15;3.30;99.90
61392;DHT22;47261;52.892;5.738;2023-02-28T08:13:41;3.40;99.90
61392;DHT22;47261;52.892;5.738;2023-02-28T08:16:11;3.40;99.90
61392;DHT22;47261;52.892;5.738;2023-02-28T08:18:37;3.40;99.90
61392;DHT22;47261;52.892;5.738;2023-02-28T08:21:08;3.40;99.90
61392;DHT22;47261;52.892;5.738;2023-02-28T08:23:33;3.40;99.90
61392;DHT22;47261;52.892;5.738;2023-02-28T08:25:59;3.40;99.90
61392;DHT22;47261;52.892;5.738;2023-02-28T08:28:25;3.50;99.90
61392;DHT22;47261;52.892;5.738;2023-02-28T08:30:50;3.50;99.90
61392;DHT22;47261;52.892;5.738;2023-02-28T08:33:16;3.50;99.90
61392;DHT22;47261;52.892;5.738;2023-02-28T08:35:41;3.60;99.90
61392;DHT22;47261;52.892;5.738;2023-02-28T08:38:07;3.70;99.90
61392;DHT22;47261;52.892;5.738;2023-02-28T08:40:33;3.70;99.90
61392;DHT22;47261;52.892;5.738;2023-02-28T08:42:58;3.80;99.90
61392;DHT22;47261;52.892;5.738;2023-02-28T08:45:25;3.80;99.90
61392;DHT22;47261;52.892;5.738;2023-02-28T08:47:51;3.80;99.90
61392;DHT22;47261;52.892;5.738;2023-02-28T08:50:18;3.90;99.90
61392;DHT22;47261;52.892;5.738;2023-02-28T08:52:44;4.00;99.90
61392;DHT22;47261;52.892;5.738;2023-02-28T08:55:10;4.00;99.90
61392;DHT22;47261;52.892;5.738;2023-02-28T08:57:36;4.10;99.90
61392;DHT22;47261;52.892;5.738;2023-02-28T09:00:02;4.10;99.90
61392;DHT22;47261;52.892;5.738;2023-02-28T09:02:30;4.20;99.90
61392;DHT22;47261;52.892;5.738;2023-02-28T09:04:57;4.30;99.90
61392;DHT22;47261;52.892;5.738;2023-02-28T09:07:24;4.40;99.90
61392;DHT22;47261;52.892;5.738;2023-02-28T09:09:49;4.40;99.90
61392;DHT22;47261;52.892;5.738;2023-02-28T09:12:24;4.60;99.90
61392;DHT22;47261;52.892;5.738;2023-02-28T09:14:51;4.70;99.90
61392;DHT22;47261;52.892;5.738;2023-02-28T09:17:17;4.80;99.90
61392;DHT22;47261;52.892;5.738;2023-02-28T09:19:43;4.90;99.90
61392;DHT22;47261;52.892;5.738;2023-02-28T09:22:10;5.00;99.90
61392;DHT22;47261;52.892;5.738;2023-02-28T09:24:37;5.10;99.90
61392;DHT22;47261;52.892;5.738;2023-02-28T09:27:03;5.10;99.90
61392;DHT22;47261;52.892;5.738;2023-02-28T09:29:28;5.30;99.90
61392;DHT22;47261;52.892;5.738;2023-02-28T09:31:54;5.30;99.90
61392;DHT22;47261;52.892;5.738;2023-02-28T09:34:21;5.40;99.90
61392;DHT22;47261;52.892;5.738;2023-02-28T09:36:46;5.50;99.90
61392;DHT22;47261;52.892;5.738;2023-02-28T09:39:12;5.70;99.90
61392;DHT22;47261;52.892;5.738;2023-02-28T09:41:43;5.80;99.90
61392;DHT22;47261;52.892;5.738;2023-02-28T09:44:42;6.00;99.90
61392;DHT22;47261;52.892;5.738;2023-02-28T09:49:47;6.30;99.90
61392;DHT22;47261;52.892;5.738;2023-02-28T09:52:19;6.50;99.90
61392;DHT22;47261;52.892;5.738;2023-02-28T09:54:46;6.50;99.90
61392;DHT22;47261;52.892;5.738;2023-02-28T09:57:33;6.60;99.90
61392;DHT22;47261;52.892;5.738;2023-02-28T10:00:14;6.60;99.90
61392;DHT22;47261;52.892;5.738;2023-02-28T10:05:26;6.60;99.90
61392;DHT22;47261;52.892;5.738;2023-02-28T10:10:48;6.40;99.90
61392;DHT22;47261;52.892;5.738;2023-02-28T10:16:14;6.50;99.90
61392;DHT22;47261;52.892;5.738;2023-02-28T10:18:53;6.60;99.90
61392;DHT22;47261;52.892;5.738;2023-02-28T10:22:14;6.70;99.90
61392;DHT22;47261;52.892;5.738;2023-02-28T10:24:21;6.90;99.90
61392;DHT22;47261;52.892;5.738;2023-02-28T10:26:48;7.10;99.90
61392;DHT22;47261;52.892;5.738;2023-02-28T10:29:18;7.20;99.90
61392;DHT22;47261;52.892;5.738;2023-02-28T10:31:43;7.30;99.90
61392;DHT22;47261;52.892;5.738;2023-02-28T10:34:12;7.50;99.90
61392;DHT22;47261;52.892;5.738;2023-02-28T10:36:38;7.70;99.90
61392;DHT22;47261;52.892;5.738;2023-02-28T10:39:37;7.90;99.90
61392;DHT22;47261;52.892;5.738;2023-02-28T10:42:04;8.20;99.70
61392;DHT22;47261;52.892;5.738;2023-02-28T10:44:29;8.30;99.60
61392;DHT22;47261;52.892;5.738;2023-02-28T10:46:55;8.40;99.20
61392;DHT22;47261;52.892;5.738;2023-02-28T10:49:23;8.50;98.60
61392;DHT22;47261;52.892;5.738;2023-02-28T10:51:56;8.70;97.70
61392;DHT22;47261;52.892;5.738;2023-02-28T10:57:28;8.90;96.70
61392;DHT22;47261;52.892;5.738;2023-02-28T11:00:23;9.00;95.70
61392;DHT22;47261;52.892;5.738;2023-02-28T11:02:51;9.00;95.50
61392;DHT22;47261;52.892;5.738;2023-02-28T11:05:32;8.90;95.70
61392;DHT22;47261;52.892;5.738;2023-02-28T11:08:14;8.90;95.40
61392;DHT22;47261;52.892;5.738;2023-02-28T11:10:45;8.80;94.70
61392;DHT22;47261;52.892;5.738;2023-02-28T11:13:19;8.80;94.50
61392;DHT22;47261;52.892;5.738;2023-02-28T11:15:53;8.80;93.90
61392;DHT22;47261;52.892;5.738;2023-02-28T11:18:44;8.90;93.50
61392;DHT22;47261;52.892;5.738;2023-02-28T11:21:18;9.00;93.00
61392;DHT22;47261;52.892;5.738;2023-02-28T11:23:44;9.00;92.80
61392;DHT22;47261;52.892;5.738;2023-02-28T11:26:10;9.00;92.50
61392;DHT22;47261;52.892;5.738;2023-02-28T11:28:40;9.00;92.50
61392;DHT22;47261;52.892;5.738;2023-02-28T11:36:29;8.90;92.20
61392;DHT22;47261;52.892;5.738;2023-02-28T11:38:58;8.90;91.80
61392;DHT22;47261;52.892;5.738;2023-02-28T11:44:27;9.10;90.60
61392;DHT22;47261;52.892;5.738;2023-02-28T11:47:19;9.20;90.60
61392;DHT22;47261;52.892;5.738;2023-02-28T11:53:02;9.20;90.30
61392;DHT22;47261;52.892;5.738;2023-02-28T11:55:37;9.20;90.00
61392;DHT22;47261;52.892;5.738;2023-02-28T12:03:53;9.30;89.10
61392;DHT22;47261;52.892;5.738;2023-02-28T12:11:53;9.30;85.70
61392;DHT22;47261;52.892;5.738;2023-02-28T12:28:13;9.40;82.30
61392;DHT22;47261;52.892;5.738;2023-02-28T12:30:52;9.30;83.00
61392;DHT22;47261;52.892;5.738;2023-02-28T12:33:23;9.30;82.20
61392;DHT22;47261;52.892;5.738;2023-02-28T12:35:54;9.40;82.10
61392;DHT22;47261;52.892;5.738;2023-02-28T12:43:44;9.60;80.60
61392;DHT22;47261;52.892;5.738;2023-02-28T12:48:48;9.60;79.40
61392;DHT22;47261;52.892;5.738;2023-02-28T12:51:17;9.60;79.90
61392;DHT22;47261;52.892;5.738;2023-02-28T12:59:23;10.00;78.20
61392;DHT22;47261;52.892;5.738;2023-02-28T13:10:45;10.80;76.80
61392;DHT22;47261;52.892;5.738;2023-02-28T13:13:16;10.90;77.10
61392;DHT22;47261;52.892;5.738;2023-02-28T13:18:37;11.10;76.10
61392;DHT22;47261;52.892;5.738;2023-02-28T13:21:07;11.30;76.10
61392;DHT22;47261;52.892;5.738;2023-02-28T13:26:07;11.40;75.20
61392;DHT22;47261;52.892;5.738;2023-02-28T13:31:16;11.10;73.70
61392;DHT22;47261;52.892;5.738;2023-02-28T13:38:45;10.80;74.60
61392;DHT22;47261;52.892;5.738;2023-02-28T13:49:31;10.60;74.40
61392;DHT22;47261;52.892;5.738;2023-02-28T14:00:57;10.20;73.90
61392;DHT22;47261;52.892;5.738;2023-02-28T14:06:31;10.00;73.70
61392;DHT22;47261;52.892;5.738;2023-02-28T14:09:17;10.00;73.40
61392;DHT22;47261;52.892;5.738;2023-02-28T14:11:45;9.80;73.30
61392;DHT22;47261;52.892;5.738;2023-02-28T14:17:01;9.60;73.20
61392;DHT22;47261;52.892;5.738;2023-02-28T14:19:29;9.60;73.70
61392;DHT22;47261;52.892;5.738;2023-02-28T14:22:08;9.60;73.80
61392;DHT22;47261;52.892;5.738;2023-02-28T14:27:29;9.70;73.40
61392;DHT22;47261;52.892;5.738;2023-02-28T14:33:22;9.70;72.90
61392;DHT22;47261;52.892;5.738;2023-02-28T14:38:52;9.40;72.80
61392;DHT22;47261;52.892;5.738;2023-02-28T14:41:38;9.40;73.10
61392;DHT22;47261;52.892;5.738;2023-02-28T14:44:26;9.50;73.10
61392;DHT22;47261;52.892;5.738;2023-02-28T14:46:57;9.60;73.50
61392;DHT22;47261;52.892;5.738;2023-02-28T14:49:30;9.70;73.60
61392;DHT22;47261;52.892;5.738;2023-02-28T14:54:40;10.10;73.40
61392;DHT22;47261;52.892;5.738;2023-02-28T14:57:18;10.30;73.50
61392;DHT22;47261;52.892;5.738;2023-02-28T14:59:45;10.30;73.50
61392;DHT22;47261;52.892;5.738;2023-02-28T15:02:22;10.30;73.60
61392;DHT22;47261;52.892;5.738;2023-02-28T15:07:43;10.30;73.40
61392;DHT22;47261;52.892;5.738;2023-02-28T15:10:25;10.30;74.00
61392;DHT22;47261;52.892;5.738;2023-02-28T15:12:54;10.30;73.70
61392;DHT22;47261;52.892;5.738;2023-02-28T15:15:22;10.30;73.70
61392;DHT22;47261;52.892;5.738;2023-02-28T15:17:54;10.40;73.30
61392;DHT22;47261;52.892;5.738;2023-02-28T15:20:23;10.40;72.60
61392;DHT22;47261;52.892;5.738;2023-02-28T15:22:51;10.30;72.20
61392;DHT22;47261;52.892;5.738;2023-02-28T15:25:20;10.40;71.90
61392;DHT22;47261;52.892;5.738;2023-02-28T15:27:52;10.30;71.90
61392;DHT22;47261;52.892;5.738;2023-02-28T15:30:27;10.20;72.00
61392;DHT22;47261;52.892;5.738;2023-02-28T15:33:23;10.20;72.90
61392;DHT22;47261;52.892;5.738;2023-02-28T15:35:51;10.10;72.50
61392;DHT22;47261;52.892;5.738;2023-02-28T15:38:27;10.20;74.10
61392;DHT22;47261;52.892;5.738;2023-02-28T15:40:57;10.20;73.70
61392;DHT22;47261;52.892;5.738;2023-02-28T15:43:30;10.30;74.50
61392;DHT22;47261;52.892;5.738;2023-02-28T15:46:11;10.50;74.50
61392;DHT22;47261;52.892;5.738;2023-02-28T15:48:56;10.60;74.30
61392;DHT22;47261;52.892;5.738;2023-02-28T15:51:37;10.70;73.70
61392;DHT22;47261;52.892;5.738;2023-02-28T15:54:08;10.70;73.40
61392;DHT22;47261;52.892;5.738;2023-02-28T15:56:46;10.70;73.10
61392;DHT22;47261;52.892;5.738;2023-02-28T15:59:18;10.70;72.90
61392;DHT22;47261;52.892;5.738;2023-02-28T16:01:45;10.60;72.90
61392;DHT22;47261;52.892;5.738;2023-02-28T16:04:16;10.50;72.80
61392;DHT22;47261;52.892;5.738;2023-02-28T16:09:22;10.30;72.20
61392;DHT22;47261;52.892;5.738;2023-02-28T16:11:50;10.10;72.20
61392;DHT22;47261;52.892;5.738;2023-02-28T16:14:20;10.00;71.90
61392;DHT22;47261;52.892;5.738;2023-02-28T16:16:51;9.90;71.80
61392;DHT22;47261;52.892;5.738;2023-02-28T16:19:18;9.70;71.90
61392;DHT22;47261;52.892;5.738;2023-02-28T16:21:44;9.60;72.30
61392;DHT22;47261;52.892;5.738;2023-02-28T16:24:10;9.50;72.60
61392;DHT22;47261;52.892;5.738;2023-02-28T16:26:36;9.40;72.90
61392;DHT22;47261;52.892;5.738;2023-02-28T16:29:05;9.30;73.00
61392;DHT22;47261;52.892;5.738;2023-02-28T16:31:37;9.20;73.30
61392;DHT22;47261;52.892;5.738;2023-02-28T16:34:03;9.10;73.70
61392;DHT22;47261;52.892;5.738;2023-02-28T16:36:30;9.00;74.10
61392;DHT22;47261;52.892;5.738;2023-02-28T16:38:56;8.90;74.30
61392;DHT22;47261;52.892;5.738;2023-02-28T16:41:24;8.90;74.30
61392;DHT22;47261;52.892;5.738;2023-02-28T16:43:53;8.80;74.40
61392;DHT22;47261;52.892;5.738;2023-02-28T16:46:20;8.70;74.30
61392;DHT22;47261;52.892;5.738;2023-02-28T16:48:46;8.70;74.60
61392;DHT22;47261;52.892;5.738;2023-02-28T16:51:16;8.60;74.90
61392;DHT22;47261;52.892;5.738;2023-02-28T16:53:43;8.50;75.10
61392;DHT22;47261;52.892;5.738;2023-02-28T16:56:19;8.50;75.20
61392;DHT22;47261;52.892;5.738;2023-02-28T16:58:46;8.40;75.10
61392;DHT22;47261;52.892;5.738;2023-02-28T17:01:12;8.30;75.20
61392;DHT22;47261;52.892;5.738;2023-02-28T17:03:38;8.20;75.40
61392;DHT22;47261;52.892;5.738;2023-02-28T17:06:06;8.10;75.50
61392;DHT22;47261;52.892;5.738;2023-02-28T17:08:32;7.90;75.60
61392;DHT22;47261;52.892;5.738;2023-02-28T17:11:01;7.80;75.80
61392;DHT22;47261;52.892;5.738;2023-02-28T17:13:28;7.60;76.00
61392;DHT22;47261;52.892;5.738;2023-02-28T17:15:54;7.50;76.20
61392;DHT22;47261;52.892;5.738;2023-02-28T17:18:20;7.30;76.50
61392;DHT22;47261;52.892;5.738;2023-02-28T17:20:49;7.20;76.90
61392;DHT22;47261;52.892;5.738;2023-02-28T17:23:14;7.10;77.30
61392;DHT22;47261;52.892;5.738;2023-02-28T17:25:41;7.00;77.80
61392;DHT22;47261;52.892;5.738;2023-02-28T17:28:08;6.80;78.10
61392;DHT22;47261;52.892;5.738;2023-02-28T17:30:34;6.70;78.50
61392;DHT22;47261;52.892;5.738;2023-02-28T17:33:00;6.60;78.80
61392;DHT22;47261;52.892;5.738;2023-02-28T17:35:26;6.50;79.20
61392;DHT22;47261;52.892;5.738;2023-02-28T17:37:52;6.40;79.50
61392;DHT22;47261;52.892;5.738;2023-02-28T17:40:21;6.30;79.80
61392;DHT22;47261;52.892;5.738;2023-02-28T17:42:47;6.30;80.20
61392;DHT22;47261;52.892;5.738;2023-02-28T17:45:14;6.20;80.50
61392;DHT22;47261;52.892;5.738;2023-02-28T17:47:41;6.10;81.10
61392;DHT22;47261;52.892;5.738;2023-02-28T17:50:15;6.00;81.80
61392;DHT22;47261;52.892;5.738;2023-02-28T17:52:41;5.80;82.50
61392;DHT22;47261;52.892;5.738;2023-02-28T17:55:08;5.70;83.10
61392;DHT22;47261;52.892;5.738;2023-02-28T17:57:33;5.60;83.60
61392;DHT22;47261;52.892;5.738;2023-02-28T17:59:59;5.40;84.10
61392;DHT22;47261;52.892;5.738;2023-02-28T18:02:25;5.30;84.40
61392;DHT22;47261;52.892;5.738;2023-02-28T18:04:52;5.10;84.30
61392;DHT22;47261;52.892;5.738;2023-02-28T18:07:19;4.90;84.70
61392;DHT22;47261;52.892;5.738;2023-02-28T18:09:45;4.80;85.80
61392;DHT22;47261;52.892;5.738;2023-02-28T18:12:11;4.70;87.10
61392;DHT22;47261;52.892;5.738;2023-02-28T18:14:37;4.60;88.50
61392;DHT22;47261;52.892;5.738;2023-02-28T18:17:02;4.50;89.50
61392;DHT22;47261;52.892;5.738;2023-02-28T18:19:28;4.40;90.10
61392;DHT22;47261;52.892;5.738;2023-02-28T18:21:53;4.30;90.30
61392;DHT22;47261;52.892;5.738;2023-02-28T18:24:20;4.30;90.50
61392;DHT22;47261;52.892;5.738;2023-02-28T18:26:47;4.20;90.80
61392;DHT22;47261;52.892;5.738;2023-02-28T18:29:17;4.00;90.90
61392;DHT22;47261;52.892;5.738;2023-02-28T18:31:43;3.90;91.10
61392;DHT22;47261;52.892;5.738;2023-02-28T18:34:09;3.80;91.40